Tomtabacken, Sweden

5:28 AM CEST on September 16, 2014 (GMT +0200)
Norrängen | Change Station
CLOSE
Current Station
Personal Weather Station
Location: Huskvarna, JöNKöPING
Elevation: 436 ft
Nearby Weather Stations

Elev 436 ft 57.81 °N, 14.28 °E | Updated 35 seconds ago

Clear
Clear
44.6 °F
Feels Like 45 °F
N
0.0
Wind Variable Wind from NW
Gusts 0.0 mph

Today
High -- | Low -- °F
--% Chance of Precip.
Yesterday
High -- | Low -- °F
Precip. -- in
6:34 AM 7:18 PM
Waning Gibbous, 49% visible
Pressure 30.36 in
Visibility -9999.0 miles
Clouds
Windchill 45 °F
Dew Point 43 °F
Humidity 95%
Rainfall 0.00 in
Snow Depth Not available.
UV Not available.
Pollen Not available.
Air Quality Not available.
Flu Activity Not available.
METAR ESGJ 160320Z AUTO VRB02KT 4400 NCD 01/01 Q1028

More Conditions Fewer Conditions

Pressure 30.36 in
Visibility -9999.0 miles
Clouds
Windchill 45 °F
Dew Point 43 °F
Humidity 95%
Rainfall 0.00 in
Snow Depth Not available.
UV Not available.
Pollen Not available.
Air Quality Not available.
Flu Activity Not available.
METAR ESGJ 160320Z AUTO VRB02KT 4400 NCD 01/01 Q1028

More Conditions Fewer Conditions

10-Day Weather Forecast

Almanac

Astronomy

Sep. 16, 2014 Rise Set
Actual Time 6:34 AM CEST 7:18 PM CEST
Civil Twilight 5:54 AM CEST 7:57 PM CEST
Nautical Twilight 5:07 AM CEST 8:45 PM CEST
Astronomical Twilight 4:14 AM CEST 9:36 PM CEST
Moon 11:27 PM CEST 3:22 PM CEST
Length of Visible Light 14h 02m
Length of Day
12h 44m
Tomorrow will be 4m 52s shorter.
Waning Gibbous, 49% of the Moon is Illuminated
Sep 15
Waning Gibbous
Sep 24
New
Oct 1
First Quarter
Oct 8
Full
Oct 15
Last Quarter

Yesterday's Extremes

Country Highs Country Lows

Community

WunderPhotos

Upload Photos

1,753,694 photos uploaded!

Nearby

Snow Depth

Not available.

Earthquake Activity

City Distance Mag. Time & Date
No recent earthquake activity has been reported nearby.
Minimum magnitude displayed is 2.5.

Coastal Water Temperatures

Place Temperature
No Stations Reporting

Nearby Weather Stations